Terminal Aerodrome Forecast
Issued by NWS

Home | Current Version | Previous Version | Text Only | Print | Product List | Glossary On
Versions: 1 2 3 4 5 6 7 8 9 10 11 12 13 14
844
FTUS43 KGRR 080539
TAFBTL
TAF
KBTL 080539Z 0806/0906 24005KT P6SM SCT035
     FM081100 24003KT 4SM BR VCSH BKN009
     FM081600 27006KT 6SM BR VCSH OVC015=

USA.gov is the U.S. government's official web portal to all federal, state and local government web resources and services.